Terminal Aerodrome Forecast
Issued by NWS Jackson, KY

Home | Current Version | Previous Version | Text Only | Print | Product List | Glossary On
Versions: 1 2 3 4 5 6 7 8 9 10 11 12 13 14
000
FTUS43 KJKL 040521
TAFLOZ
TAF
KLOZ 040521Z 0406/0506 27005KT P6SM OVC080
     FM041200 24008KT P6SM SCT150
     FM041900 25012G18KT 6SM -SHRA VCTS SCT025CB OVC060
     FM050000 28009KT P6SM VCSH OVC025
     FM050200 28009KT P6SM VCSH OVC015
     FM050500 29008KT P6SM OVC010=

USA.gov is the U.S. government's official web portal to all federal, state and local government web resources and services.